<?xml version='1.0' encoding='UTF-8'?>
<gpx xmlns="http://www.topografix.com/GPX/1/1" creator="www.balnam.be" version="1.1" xmlns:xsi="http://www.w3.org/2001/XMLSchema-instance" xsi:schemaLocation="http://www.topografix.com/GPX/1/1 http://www.topografix.com/GPX/1/1/gpx.xsd">
<trk>
<name>hmlmmi1</name>
<cmt>v</cmt>
<desc>Morlanwelz-Mariemont Chemin n°i1 Ancienne voie de tram</desc>
<link href="https://chemins.be/morlanwelzmariemont/chemin/i1"/><trkseg>
<trkpt lat="50.463450" lon="4.234422"><time>2026-05-02T16:31:57Z</time></trkpt>
<trkpt lat="50.463406" lon="4.235620"><time>2026-05-02T16:41:57Z</time></trkpt>
<trkpt lat="50.463264" lon="4.236747"><time>2026-05-02T16:51:57Z</time></trkpt>
<trkpt lat="50.462612" lon="4.239516"><time>2026-05-02T17:01:57Z</time></trkpt>
<trkpt lat="50.462414" lon="4.240200"><time>2026-05-02T17:11:57Z</time></trkpt>
<trkpt lat="50.461642" lon="4.241821"><time>2026-05-02T17:21:57Z</time></trkpt>
<trkpt lat="50.460251" lon="4.244219"><time>2026-05-02T17:31:57Z</time></trkpt>
<trkpt lat="50.460018" lon="4.244657"><time>2026-05-02T17:41:57Z</time></trkpt>
<trkpt lat="50.459884" lon="4.244910"><time>2026-05-02T17:51:57Z</time></trkpt>
<trkpt lat="50.459731" lon="4.245221"><time>2026-05-02T18:01:57Z</time></trkpt>
<trkpt lat="50.459632" lon="4.245474"><time>2026-05-02T18:11:57Z</time></trkpt>
<trkpt lat="50.459561" lon="4.245714"><time>2026-05-02T18:21:57Z</time></trkpt>
<trkpt lat="50.459507" lon="4.245968"><time>2026-05-02T18:31:57Z</time></trkpt>
<trkpt lat="50.459453" lon="4.246193"><time>2026-05-02T18:41:57Z</time></trkpt>
<trkpt lat="50.459382" lon="4.246531"><time>2026-05-02T18:51:57Z</time></trkpt>
<trkpt lat="50.459328" lon="4.246799"><time>2026-05-02T19:01:57Z</time></trkpt>
<trkpt lat="50.459221" lon="4.247067"><time>2026-05-02T19:11:57Z</time></trkpt>
<trkpt lat="50.459023" lon="4.247462"><time>2026-05-02T19:21:57Z</time></trkpt>
<trkpt lat="50.458942" lon="4.247659"><time>2026-05-02T19:31:57Z</time></trkpt>
<trkpt lat="50.458916" lon="4.247772"><time>2026-05-02T19:41:57Z</time></trkpt>
<trkpt lat="50.458898" lon="4.247828"><time>2026-05-02T19:51:57Z</time></trkpt>
<trkpt lat="50.458898" lon="4.247885"><time>2026-05-02T20:01:57Z</time></trkpt>
<trkpt lat="50.458889" lon="4.248054"><time>2026-05-02T20:11:57Z</time></trkpt>
<trkpt lat="50.458925" lon="4.248166"><time>2026-05-02T20:21:57Z</time></trkpt>
<trkpt lat="50.458988" lon="4.248307"><time>2026-05-02T20:31:57Z</time></trkpt>
<trkpt lat="50.459051" lon="4.248433"><time>2026-05-02T20:41:57Z</time></trkpt>
<trkpt lat="50.459114" lon="4.248574"><time>2026-05-02T20:51:57Z</time></trkpt>
<trkpt lat="50.459330" lon="4.248940"><time>2026-05-02T21:01:57Z</time></trkpt>
<trkpt lat="50.459492" lon="4.249179"><time>2026-05-02T21:11:57Z</time></trkpt>
<trkpt lat="50.459735" lon="4.249403"><time>2026-05-02T21:21:57Z</time></trkpt>
<trkpt lat="50.459987" lon="4.249586"><time>2026-05-02T21:31:57Z</time></trkpt>
<trkpt lat="50.460329" lon="4.249824"><time>2026-05-02T21:41:57Z</time></trkpt>
<trkpt lat="50.461481" lon="4.250427"><time>2026-05-02T21:51:57Z</time></trkpt>
</trkseg>
</trk>
</gpx>